Time;durP1;ratioP1;P1;durP2;ratioP2;P2;SDS_P1;SDS_P2;PMS_P1;PMS_P2;Temp;Humidity;BMP_temperature;BMP_pressure;BME280_temperature;BME280_humidity;BME280_pressure;Samples;Min_cycle;Max_cycle;Signal;HPM_P1;HPM_P2
2022/12/25 00:01:07;;;;;;;8.20;7.80;;;;;;;9.64;100.00;4876.41;5071616;28;20181;-65
2022/12/25 00:03:34;;;;;;;8.73;8.33;;;;;;;9.36;100.00;4234.00;5071162;28;20200;-66
2022/12/25 00:06:01;;;;;;;8.00;7.50;;;;;;;9.62;100.00;5195.59;5070084;28;20204;-66
2022/12/25 00:08:28;;;;;;;9.63;9.03;;;;;;;9.63;100.00;4237.31;5071171;28;20185;-65
2022/12/25 00:11:01;;;;;;;9.77;9.13;;;;;;;9.62;100.00;2959.59;5071149;28;20184;-64
2022/12/25 00:13:28;;;;;;;10.10;9.50;;;;;;;9.50;100.00;2958.47;5070985;28;20189;-64
2022/12/25 00:15:56;;;;;;;9.97;9.20;;;;;;;9.67;100.00;4557.16;5071610;28;20211;-65
2022/12/25 00:18:23;;;;;;;9.30;8.80;;;;;;;9.64;100.00;5195.94;5071011;28;20195;-64
2022/12/25 00:20:58;;;;;;;9.23;8.73;;;;;;;9.67;100.00;4557.16;5071272;28;20184;-65
2022/12/25 00:23:24;;;;;;;10.03;9.50;;;;;;;9.76;100.00;6476.13;5071155;28;20184;-65
2022/12/25 00:25:51;;;;;;;9.70;9.10;;;;;;;9.79;100.00;6156.94;5071284;28;20655;-65
2022/12/25 00:28:20;;;;;;;10.43;9.77;;;;;;;9.68;100.00;5516.00;5071020;28;20228;-64
2022/12/25 00:30:47;;;;;;;10.33;9.63;;;;;;;9.73;100.00;3918.91;5071102;28;20189;-65
2022/12/25 00:33:14;;;;;;;9.80;9.10;;;;;;;9.76;100.00;4558.28;5071262;28;20189;-65
2022/12/25 00:35:41;;;;;;;10.43;9.63;;;;;;;9.65;100.00;5515.56;5071008;28;20671;-64
2022/12/25 00:38:09;;;;;;;10.43;9.60;;;;;;;9.79;100.00;7755.84;5071255;28;20185;-64
2022/12/25 00:40:42;;;;;;;9.40;8.77;;;;;;;9.78;100.00;9035.38;5071366;28;20187;-65
2022/12/25 00:43:09;;;;;;;9.83;8.93;;;;;;;9.82;100.00;10636.72;5071097;28;20572;-65
2022/12/25 00:45:37;;;;;;;9.73;9.23;;;;;;;9.82;100.00;11597.38;5070909;28;20185;-64
2022/12/25 00:48:05;;;;;;;9.13;8.50;;;;;;;10.04;100.00;11922.94;5070798;28;20189;-65
2022/12/25 00:50:31;;;;;;;8.83;8.43;;;;;;;10.06;100.00;16091.66;5071694;28;20192;-64
2022/12/25 00:52:58;;;;;;;8.67;8.17;;;;;;;10.12;100.00;18982.31;5070747;28;20192;-64
2022/12/25 00:55:25;;;;;;;9.23;8.73;;;;;;;10.17;100.00;20268.81;5071325;28;20216;-64
2022/12/25 00:57:52;;;;;;;9.47;8.97;;;;;;;10.26;100.00;22522.53;5070775;28;20296;-64
2022/12/25 01:00:19;;;;;;;9.10;8.60;;;;;;;10.37;100.00;25100.78;5070954;28;20559;-64
2022/12/25 01:02:48;;;;;;;8.93;8.53;;;;;;;10.38;100.00;27999.47;5070880;28;20196;-64
2022/12/25 01:05:15;;;;;;;9.13;8.60;;;;;;;10.23;100.00;29924.75;5070703;28;20181;-65
2022/12/25 01:07:41;;;;;;;9.80;9.10;;;;;;;10.27;100.00;30249.19;5070924;28;20185;-65
2022/12/25 01:10:21;;;;;;;9.67;9.17;;;;;;;10.31;100.00;33153.53;5070860;28;20185;-64
2022/12/25 01:12:49;;;;;;;8.87;8.47;;;;;;;10.41;100.00;35418.81;5071149;28;20262;-64
2022/12/25 01:15:16;;;;;;;9.43;8.93;;;;;;;10.38;100.00;36708.28;5071140;28;20671;-65
2022/12/25 01:17:43;;;;;;;9.40;8.50;;;;;;;10.32;100.00;37027.31;5070717;28;20190;-64
2022/12/25 01:20:13;;;;;;;8.63;8.10;;;;;;;10.15;100.00;36370.72;5070491;28;20191;-65
2022/12/25 01:22:41;;;;;;;9.13;8.63;;;;;;;10.15;100.00;36047.91;5070848;28;20193;-64
2022/12/25 01:25:09;;;;;;;9.40;8.80;;;;;;;10.21;100.00;36051.78;5070767;28;20208;-64
2022/12/25 01:27:36;;;;;;;9.53;9.03;;;;;;;10.19;100.00;37342.00;5070610;28;20235;-64
2022/12/25 01:30:04;;;;;;;8.77;8.17;;;;;;;10.18;100.00;36372.34;5070688;28;20200;-64
2022/12/25 01:32:31;;;;;;;9.43;8.90;;;;;;;10.16;100.00;37340.00;5073965;28;20209;-65
2022/12/25 01:34:58;;;;;;;9.40;8.70;;;;;;;10.12;100.00;38951.91;5073199;28;20231;-65
2022/12/25 01:37:26;;;;;;;10.30;9.53;;;;;;;10.09;100.00;42505.94;5074734;28;20200;-64
2022/12/25 01:39:53;;;;;;;10.00;9.40;;;;;;;10.03;100.00;43147.81;5074291;28;20188;-64
2022/12/25 01:42:23;;;;;;;9.13;8.60;;;;;;;9.90;100.00;39583.00;5073950;28;20272;-64
2022/12/25 01:45:33;;;;;;;10.17;9.63;;;;;;;9.75;100.00;36022.53;5073765;28;20187;-65
2022/12/25 01:48:02;;;;;;;10.00;9.30;;;;;;;9.63;100.00;34080.53;5074176;28;20602;-65
2022/12/25 01:50:29;;;;;;;9.87;9.27;;;;;;;9.52;100.00;33751.25;5074061;28;20185;-65
2022/12/25 01:52:58;;;;;;;10.27;9.67;;;;;;;9.45;100.00;29560.94;5073208;28;20620;-64
2022/12/25 01:55:27;;;;;;;10.27;9.47;;;;;;;9.52;100.00;28277.81;5074117;28;20664;-65
2022/12/25 01:57:54;;;;;;;10.97;9.97;;;;;;;9.51;100.00;29242.31;5074146;28;20195;-64
2022/12/25 02:00:21;;;;;;;10.70;10.10;;;;;;;9.49;100.00;29241.53;5074766;28;20279;-65
2022/12/25 02:02:49;;;;;;;10.80;9.93;;;;;;;9.49;100.00;30850.91;5075254;28;20188;-64
2022/12/25 02:05:22;;;;;;;10.07;9.47;;;;;;;9.44;100.00;30525.94;5075006;28;20250;-63
2022/12/25 02:07:50;;;;;;;10.27;9.47;;;;;;;9.42;100.00;32134.63;5074676;28;20200;-64
2022/12/25 02:10:19;;;;;;;9.87;9.17;;;;;;;9.46;100.00;32137.22;5074627;28;20191;-64
2022/12/25 02:12:47;;;;;;;10.17;9.40;;;;;;;9.41;100.00;32456.09;5073098;28;20185;-64
2022/12/25 02:15:16;;;;;;;11.17;10.37;;;;;;;9.36;100.00;32453.19;5073805;28;20212;-65
2022/12/25 02:17:52;;;;;;;10.80;10.13;;;;;;;9.32;100.00;31807.16;5073535;28;20181;-65
2022/12/25 02:20:40;;;;;;;11.00;10.20;;;;;;;9.34;100.00;32452.31;5073574;28;20635;-65
2022/12/25 02:23:48;;;;;;;10.97;9.83;;;;;;;9.23;100.00;32767.88;5073561;28;20250;-65
2022/12/25 02:26:31;;;;;;;11.60;10.90;;;;;;;9.20;100.00;23762.44;5029156;28;20201;-65
2022/12/25 02:29:04;;;;;;;10.53;9.77;;;;;;;9.13;100.00;22796.66;5033213;28;20197;-64
2022/12/25 02:31:37;;;;;;;11.37;10.47;;;;;;;9.20;100.00;24083.78;5033005;28;20194;-64
2022/12/25 02:34:11;;;;;;;10.90;10.20;;;;;;;9.06;100.00;27290.09;5032946;28;20273;-64
2022/12/25 02:36:45;;;;;;;10.80;10.10;;;;;;;8.99;100.00;28250.53;5033027;28;20576;-65
2022/12/25 02:42:11;;;;;;;10.77;9.90;;;;;;;8.96;100.00;29213.66;5032033;28;20675;-65
2022/12/25 03:07:08;;;;;;;10.87;10.10;;;;;;;8.76;100.00;31453.44;5032281;28;20292;-64
2022/12/25 03:12:39;;;;;;;11.37;10.57;;;;;;;8.61;100.00;28874.03;5032412;28;20181;-64
2022/12/25 03:17:57;;;;;;;11.40;10.50;;;;;;;8.48;100.00;19564.13;5032536;28;20279;-65
2022/12/25 03:28:53;;;;;;;11.47;10.80;;;;;;;8.32;100.00;14438.22;5050045;28;20687;-64
2022/12/25 03:31:24;;;;;;;10.43;9.70;;;;;;;8.37;100.00;16038.81;5062094;28;20200;-64
2022/12/25 03:37:31;;;;;;;11.13;10.37;;;;;;;8.20;100.00;21475.63;5072121;28;20191;-64
2022/12/25 04:38:31;;;;;;;11.40;10.60;;;;;;;7.59;100.00;10906.16;5071271;28;20180;-64
2022/12/25 04:41:00;;;;;;;12.80;11.33;;;;;;;7.58;100.00;10586.78;5070929;28;20192;-65
2022/12/25 04:43:27;;;;;;;11.37;10.40;;;;;;;7.62;100.00;10587.69;5070968;28;20196;-64
2022/12/25 04:45:54;;;;;;;9.97;9.40;;;;;;;7.63;100.00;11226.16;5070825;28;20181;-64
2022/12/25 04:48:21;;;;;;;9.93;9.33;;;;;;;7.76;100.00;11548.38;5071166;28;20652;-64
2022/12/25 04:50:47;;;;;;;11.27;10.43;;;;;;;7.82;100.00;13146.22;5070911;28;20192;-64
2022/12/25 04:53:15;;;;;;;11.03;10.30;;;;;;;7.98;100.00;16026.88;5070788;28;20199;-64
2022/12/25 04:55:41;;;;;;;11.43;10.33;;;;;;;7.97;100.00;19865.63;5071070;28;20709;-65
2022/12/25 04:58:10;;;;;;;11.03;10.10;;;;;;;8.12;100.00;24677.31;5070669;28;20185;-64
2022/12/25 05:00:37;;;;;;;11.33;10.57;;;;;;;8.13;100.00;29812.13;5070710;28;20192;-65
2022/12/25 05:03:04;;;;;;;11.37;10.30;;;;;;;8.07;100.00;31093.59;5070936;28;20185;-64
2022/12/25 05:05:31;;;;;;;10.63;9.93;;;;;;;8.10;100.00;31737.84;5071246;28;20537;-65
2022/12/25 05:07:58;;;;;;;9.80;9.30;;;;;;;7.92;100.00;27554.56;5074714;28;20275;-64
2022/12/25 05:10:26;;;;;;;10.60;9.90;;;;;;;7.93;100.00;24027.63;5074442;28;20567;-64
2022/12/25 05:12:52;;;;;;;11.20;10.47;;;;;;;7.92;100.00;22105.06;5074791;28;20636;-65
2022/12/25 05:15:20;;;;;;;9.53;8.93;;;;;;;7.99;100.00;22428.09;5074614;28;20212;-64
2022/12/25 05:17:50;;;;;;;9.53;9.03;;;;;;;8.02;100.00;24031.63;5074485;28;20181;-64
2022/12/25 05:20:17;;;;;;;9.60;9.03;;;;;;;7.95;100.00;25310.72;5074530;28;20597;-64
2022/12/25 05:22:44;;;;;;;9.90;9.30;;;;;;;8.02;100.00;25955.59;5074578;28;20558;-64
2022/12/25 05:25:11;;;;;;;9.27;8.70;;;;;;;7.99;100.00;26274.66;5074216;28;20207;-64
2022/12/25 05:27:37;;;;;;;9.40;8.87;;;;;;;7.96;100.00;26914.94;5074486;28;20738;-64
2022/12/25 05:30:05;;;;;;;10.23;9.23;;;;;;;7.84;100.00;26588.09;5074354;28;20628;-64
2022/12/25 05:32:33;;;;;;;10.17;9.40;;;;;;;7.94;100.00;26593.22;5074024;28;20189;-64
2022/12/25 05:35:01;;;;;;;10.33;9.43;;;;;;;7.93;100.00;25951.09;5074235;28;20181;-64
2022/12/25 05:37:28;;;;;;;10.70;9.90;;;;;;;7.75;100.00;25622.41;5074574;28;20200;-64
2022/12/25 05:39:55;;;;;;;10.53;9.83;;;;;;;7.86;100.00;25306.53;5074258;28;20551;-64
2022/12/25 05:42:22;;;;;;;10.13;9.33;;;;;;;7.82;100.00;25625.72;5073884;28;20192;-64
2022/12/25 05:44:48;;;;;;;10.23;9.43;;;;;;;7.66;100.00;27221.06;5074208;28;20621;-64
2022/12/25 05:47:15;;;;;;;10.03;9.30;;;;;;;7.59;100.00;28500.03;5074059;28;20181;-64
2022/12/25 05:49:44;;;;;;;9.37;8.87;;;;;;;7.54;100.00;29138.94;5073851;28;20189;-65
2022/12/25 05:52:10;;;;;;;10.30;9.47;;;;;;;7.44;100.00;30416.75;5073743;28;20212;-64
2022/12/25 05:54:37;;;;;;;10.50;9.97;;;;;;;7.35;100.00;30091.28;5073695;28;20187;-64
2022/12/25 05:57:04;;;;;;;9.77;9.27;;;;;;;7.37;100.00;29130.19;5073428;28;20216;-64
2022/12/25 05:59:32;;;;;;;10.20;9.30;;;;;;;7.33;100.00;29128.34;5073489;28;20184;-64
2022/12/25 06:01:59;;;;;;;10.23;9.67;;;;;;;7.48;100.00;29456.50;5073891;28;20204;-64
2022/12/25 06:04:26;;;;;;;10.07;9.43;;;;;;;7.57;100.00;30744.84;5073747;28;20181;-63
2022/12/25 06:06:54;;;;;;;11.03;9.97;;;;;;;7.47;100.00;32665.47;5073829;28;20636;-63
2022/12/25 06:09:22;;;;;;;10.40;9.80;;;;;;;7.65;100.00;33960.69;5073649;28;20647;-64
2022/12/25 06:11:48;;;;;;;9.33;8.90;;;;;;;7.78;100.00;36219.25;5072636;28;20185;-64
2022/12/25 06:14:17;;;;;;;10.07;9.27;;;;;;;7.99;100.00;36554.19;5073475;28;20184;-64
2022/12/25 06:16:44;;;;;;;10.10;9.30;;;;;;;8.30;100.00;39794.50;5072961;28;20201;-65
2022/12/25 06:19:11;;;;;;;9.43;8.93;;;;;;;8.68;100.00;51123.69;5073346;28;20199;-64
2022/12/25 06:21:38;;;;;;;10.03;9.30;;;;;;;9.11;100.00;69663.13;5073475;28;20192;-64
2022/12/25 06:24:06;;;;;;;9.10;8.60;;;;;;;9.42;100.00;98148.34;5073485;28;20191;-64
2022/12/25 06:26:33;;;;;;;10.80;9.80;;;;;;;9.66;100.00;120595.31;5073042;28;20666;-63
2022/12/25 06:29:00;;;;;;;10.70;9.93;;;;;;;9.79;100.00;129891.31;5073072;28;20185;-64
2022/12/25 06:31:27;;;;;;;10.57;9.77;;;;;;;9.87;100.00;136312.91;5073304;28;20196;-65
2022/12/25 06:33:54;;;;;;;10.80;10.00;;;;;;;10.13;100.00;147226.16;5073090;28;20196;-64
2022/12/25 06:36:23;;;;;;;12.20;10.77;;;;;;;10.46;100.00;148670.53;5072988;28;20242;-66
2022/12/25 06:38:51;;;;;;;9.90;9.20;;;;;;;10.54;100.00;148692.00;5073148;28;20584;-64
2022/12/25 06:41:21;;;;;;;11.97;10.50;;;;;;;10.31;100.00;148633.84;5073280;28;20552;-65
2022/12/25 06:43:49;;;;;;;10.03;9.33;;;;;;;10.11;100.00;148583.25;5072781;28;20200;-64
2022/12/25 06:46:16;;;;;;;9.20;8.60;;;;;;;10.08;100.00;148576.97;5072673;28;20185;-64
2022/12/25 06:48:48;;;;;;;9.80;9.20;;;;;;;9.89;100.00;148170.94;5072871;28;20188;-64
2022/12/25 06:51:15;;;;;;;9.20;8.47;;;;;;;9.79;100.00;134536.78;5072884;28;20185;-64
2022/12/25 06:53:42;;;;;;;9.23;8.70;;;;;;;9.96;100.00;123965.97;5072627;28;20184;-65
2022/12/25 06:56:17;;;;;;;9.37;8.87;;;;;;;10.59;100.00;148702.13;5072747;28;20575;-65
2022/12/25 06:58:47;;;;;;;8.73;8.27;;;;;;;11.32;100.00;148885.47;5072939;28;20181;-65
2022/12/25 07:01:19;;;;;;;9.27;8.57;;;;;;;11.77;100.00;148998.09;5072686;28;20185;-65
2022/12/25 07:03:47;;;;;;;9.67;9.17;;;;;;;12.03;100.00;149063.91;5072902;28;20644;-65
2022/12/25 07:06:14;;;;;;;8.97;8.37;;;;;;;12.49;100.00;149177.81;5072259;28;20185;-65
2022/12/25 07:08:41;;;;;;;9.37;8.77;;;;;;;13.02;100.00;149310.78;5072701;28;20258;-65
2022/12/25 07:11:08;;;;;;;9.43;8.90;;;;;;;13.30;100.00;149380.47;5070971;28;20192;-65
2022/12/25 07:13:35;;;;;;;9.17;8.63;;;;;;;13.57;100.00;149448.91;5072117;28;20211;-65
2022/12/25 07:16:06;;;;;;;10.27;9.57;;;;;;;13.70;100.00;149481.84;5072392;28;20205;-65
2022/12/25 07:18:34;;;;;;;9.47;8.97;;;;;;;13.98;100.00;149551.53;5072502;28;20688;-64
2022/12/25 07:21:06;;;;;;;9.47;8.90;;;;;;;14.38;100.00;149651.75;5071925;28;20191;-64
2022/12/25 07:23:33;;;;;;;9.83;9.27;;;;;;;14.39;100.00;149654.25;5072329;28;20181;-65
2022/12/25 07:26:01;;;;;;;9.60;9.00;;;;;;;14.68;100.00;149727.81;5072441;28;20242;-66
2022/12/25 07:28:28;;;;;;;10.40;9.67;;;;;;;14.79;100.00;149755.72;5071368;28;20232;-65
2022/12/25 07:31:00;;;;;;;10.63;9.63;;;;;;;14.67;100.00;149725.28;5071876;28;20188;-64
2022/12/25 07:33:28;;;;;;;10.03;9.30;;;;;;;15.01;100.00;149811.53;5070870;28;20228;-64
2022/12/25 07:35:55;;;;;;;9.87;9.07;;;;;;;15.22;100.00;149862.25;5072053;28;20311;-65
2022/12/25 07:38:22;;;;;;;10.23;9.43;;;;;;;15.44;100.00;149918.09;5071727;28;20691;-64
2022/12/25 07:40:50;;;;;;;10.20;9.50;;;;;;;15.28;100.00;149878.72;5070836;28;20590;-65
2022/12/25 07:43:16;;;;;;;9.90;9.17;;;;;;;15.53;100.00;149942.22;5071945;28;20185;-65
2022/12/25 07:45:43;;;;;;;9.40;8.80;;;;;;;15.35;100.00;149895.25;5071648;28;20185;-64
2022/12/25 07:48:10;;;;;;;10.57;9.93;;;;;;;15.52;100.00;149938.44;5071551;28;20185;-65
2022/12/25 07:50:39;;;;;;;10.80;10.10;;;;;;;15.57;100.00;149949.88;5071838;28;20185;-65
2022/12/25 07:53:06;;;;;;;10.37;9.77;;;;;;;15.83;100.00;150015.81;5071508;28;20185;-64
2022/12/25 07:55:32;;;;;;;9.90;9.40;;;;;;;15.96;100.00;150048.81;5071571;28;20195;-64
2022/12/25 07:57:59;;;;;;;10.23;9.63;;;;;;;16.23;100.00;150116.13;5071504;28;20192;-64
2022/12/25 08:00:31;;;;;;;11.03;10.20;;;;;;;16.57;100.00;150202.50;5071630;28;20205;-65
2022/12/25 08:02:58;;;;;;;10.80;10.00;;;;;;;16.58;100.00;150205.06;5071736;28;20631;-64
2022/12/25 08:05:25;;;;;;;10.50;9.80;;;;;;;16.64;100.00;150220.28;5071341;28;20185;-65
2022/12/25 08:07:53;;;;;;;9.23;8.57;;;;;;;17.12;100.00;150340.97;5071296;28;20218;-64
2022/12/25 08:10:21;;;;;;;10.93;10.23;;;;;;;16.76;100.00;150250.75;5071223;28;20238;-64
2022/12/25 08:12:48;;;;;;;9.90;9.30;;;;;;;16.90;100.00;150286.34;5071362;28;20193;-64
2022/12/25 08:15:15;;;;;;;10.10;9.60;;;;;;;17.15;100.00;150347.28;5071243;28;20184;-64
2022/12/25 08:17:42;;;;;;;9.57;8.87;;;;;;;18.06;100.00;150576.13;5071186;28;20204;-64
2022/12/25 08:20:09;;;;;;;10.67;9.97;;;;;;;17.70;100.00;150487.13;5071506;28;20285;-64
2022/12/25 08:22:36;;;;;;;10.53;9.70;;;;;;;18.00;100.00;150560.84;5071127;28;20590;-65
2022/12/25 08:25:05;;;;;;;9.83;9.23;;;;;;;18.72;100.00;150742.72;5071440;28;20189;-65
2022/12/25 08:27:32;;;;;;;11.07;9.87;;;;;;;18.92;100.00;150792.38;5071150;28;20611;-64
2022/12/25 08:29:58;;;;;;;9.90;9.27;;;;;;;18.49;100.00;150685.50;5069886;28;20188;-64
2022/12/25 08:32:25;;;;;;;10.10;9.30;;;;;;;18.92;100.00;150792.38;5071320;28;20630;-64
2022/12/25 08:34:52;;;;;;;8.93;8.43;;;;;;;18.84;100.00;150772.03;5071337;28;20212;-65
2022/12/25 08:37:19;;;;;;;10.93;9.83;;;;;;;18.15;100.00;150599.00;5071644;28;20227;-65
2022/12/25 08:39:46;;;;;;;9.60;9.00;;;;;;;18.81;100.00;150765.63;5072282;28;20181;-64
2022/12/25 08:42:15;;;;;;;9.80;8.83;;;;;;;19.02;99.14;150817.78;5075423;28;20266;-65
2022/12/25 08:44:42;;;;;;;8.90;8.33;;;;;;;18.50;100.00;150688.00;5075158;28;20173;-64
2022/12/25 08:47:08;;;;;;;9.93;9.27;;;;;;;18.47;100.00;150679.09;5075018;28;20264;-65
2022/12/25 08:49:35;;;;;;;9.00;8.50;;;;;;;18.59;97.12;150710.94;5075493;28;20619;-64
2022/12/25 08:52:02;;;;;;;12.67;9.10;;;;;;;18.90;99.08;150787.25;5074866;28;20185;-64
2022/12/25 08:54:31;;;;;;;8.57;8.07;;;;;;;18.94;99.65;150797.44;5075376;28;20552;-65
2022/12/25 08:56:58;;;;;;;8.83;8.33;;;;;;;19.25;96.25;150876.34;5075309;28;20212;-64
2022/12/25 08:59:26;;;;;;;9.15;8.57;;;;;;;19.34;95.48;150899.25;5073666;28;20185;-64
2022/12/25 09:01:53;;;;;;;9.90;9.18;;;;;;;19.51;93.55;150942.56;5075123;28;20189;-64
2022/12/25 09:04:20;;;;;;;9.13;8.40;;;;;;;18.92;96.44;150792.38;5073987;28;20612;-65
2022/12/25 09:06:47;;;;;;;9.03;8.27;;;;;;;19.25;94.46;150876.34;5075166;28;20181;-64
2022/12/25 09:09:14;;;;;;;8.70;8.20;;;;;;;19.30;92.68;150887.78;5074965;28;20218;-64
2022/12/25 09:11:41;;;;;;;9.23;8.68;;;;;;;19.31;93.33;150890.34;5073828;28;20189;-65
2022/12/25 09:14:08;;;;;;;9.30;8.80;;;;;;;19.96;89.31;151054.56;5074953;28;20231;-64
2022/12/25 09:16:36;;;;;;;10.15;8.18;;;;;;;19.91;88.77;151041.81;5074439;28;20254;-63
2022/12/25 09:19:03;;;;;;;9.77;8.77;;;;;;;20.18;88.98;151110.59;5074537;28;20193;-64
2022/12/25 09:21:30;;;;;;;8.55;8.05;;;;;;;20.93;83.74;151299.09;5075414;28;20196;-64
2022/12/25 09:23:57;;;;;;;8.05;7.68;;;;;;;20.54;83.06;151199.78;5074954;28;20199;-64
2022/12/25 09:26:23;;;;;;;8.93;8.43;;;;;;;21.54;77.58;151452.06;5074837;28;20188;-65
2022/12/25 09:28:52;;;;;;;8.43;7.85;;;;;;;21.41;77.00;151421.50;5075179;28;20734;-64
2022/12/25 09:31:19;;;;;;;8.50;8.05;;;;;;;21.49;78.34;151440.59;5075370;28;20647;-63
2022/12/25 09:33:48;;;;;;;9.15;8.55;;;;;;;21.25;79.25;151380.72;5075547;28;20189;-64
2022/12/25 09:36:15;;;;;;;8.30;7.80;;;;;;;21.47;77.17;151434.25;5075402;28;20623;-64
2022/12/25 09:38:42;;;;;;;8.15;7.43;;;;;;;22.53;69.80;151702.00;5075217;28;20598;-65
2022/12/25 09:41:16;;;;;;;8.52;7.97;;;;;;;22.74;68.34;151755.63;5075381;28;20558;-65
2022/12/25 09:43:47;;;;;;;8.80;8.15;;;;;;;24.18;62.01;152118.13;5075224;28;20184;-65
2022/12/25 09:46:19;;;;;;;8.00;7.55;;;;;;;23.31;62.90;151898.47;5074250;28;20197;-64
2022/12/25 09:48:58;;;;;;;7.95;7.55;;;;;;;23.26;63.85;151885.72;5074743;28;20181;-65
2022/12/25 09:51:29;;;;;;;7.90;7.50;;;;;;;22.23;67.66;151628.06;5073799;28;20188;-65
2022/12/25 09:54:02;;;;;;;8.23;7.70;;;;;;;22.43;69.54;151676.47;5074101;28;20193;-64
2022/12/25 09:56:28;;;;;;;8.38;7.88;;;;;;;22.41;68.59;151672.63;5073912;28;20208;-65
2022/12/25 09:58:55;;;;;;;8.00;7.53;;;;;;;22.58;68.63;151714.72;5074243;28;20189;-65
2022/12/25 10:01:31;;;;;;;8.30;7.82;;;;;;;22.56;68.81;151709.66;5073642;28;20208;-65
2022/12/25 10:04:22;;;;;;;7.15;6.75;;;;;;;23.73;62.28;152004.44;5074051;28;20180;-65
2022/12/25 10:07:01;;;;;;;7.63;7.32;;;;;;;23.30;62.64;151897.19;5074019;28;20268;-65
2022/12/25 10:09:40;;;;;;;7.43;7.13;;;;;;;22.57;65.04;151713.50;5073765;28;20636;-64
2022/12/25 10:12:29;;;;;;;9.43;7.32;;;;;;;23.68;62.61;151994.22;5073677;28;20193;-64
2022/12/25 10:15:14;;;;;;;7.35;6.97;;;;;;;23.77;60.38;152015.94;5073425;28;20185;-64
2022/12/25 10:17:57;;;;;;;7.45;7.15;;;;;;;23.52;61.78;151953.41;5073647;28;20240;-65
2022/12/25 10:20:39;;;;;;;6.35;6.07;;;;;;;23.21;61.30;151875.50;5073447;28;20188;-64
2022/12/25 10:23:14;;;;;;;6.60;6.13;;;;;;;22.47;66.12;151687.97;5073275;28;20275;-65
2022/12/25 10:25:41;;;;;;;7.05;6.75;;;;;;;22.99;63.15;151819.41;5073694;28;20199;-65
2022/12/25 10:28:13;;;;;;;6.30;6.00;;;;;;;23.14;61.87;151857.66;5072989;28;20232;-64
2022/12/25 10:30:43;;;;;;;6.40;5.97;;;;;;;23.17;62.19;151864.00;5073483;28;20289;-65
2022/12/25 10:33:12;;;;;;;5.43;5.13;;;;;;;24.53;54.04;152207.47;5073123;28;20181;-64
2022/12/25 10:35:41;;;;;;;5.70;5.40;;;;;;;24.30;52.98;152148.75;5073474;28;20200;-64
2022/12/25 10:38:13;;;;;;;5.68;5.38;;;;;;;24.99;51.77;152325.03;5072843;28;20216;-65
2022/12/25 10:40:56;;;;;;;5.57;5.07;;;;;;;24.86;52.69;152290.59;5071966;28;20633;-65
2022/12/25 10:43:29;;;;;;;4.90;4.70;;;;;;;26.02;49.82;152583.22;5073052;28;20640;-65
2022/12/25 10:45:56;;;;;;;5.97;5.68;;;;;;;25.69;49.75;152501.44;5072735;28;20238;-65
2022/12/25 10:48:26;;;;;;;5.28;5.00;;;;;;;25.18;50.78;152371.03;5073108;28;20234;-64
2022/12/25 10:50:55;;;;;;;6.00;5.50;;;;;;;25.08;51.25;152346.75;5072930;28;20191;-65
2022/12/25 10:53:24;;;;;;;5.40;5.13;;;;;;;24.81;51.61;152279.03;5072529;28;20204;-65
2022/12/25 10:55:59;;;;;;;5.35;5.05;;;;;;;23.88;54.94;152044.03;5072978;28;20597;-64
2022/12/25 10:58:26;;;;;;;4.80;4.60;;;;;;;24.64;53.09;152235.59;5072847;28;20219;-65
2022/12/25 11:00:56;;;;;;;3.75;3.50;;;;;;;22.99;53.23;151819.41;5072437;28;20230;-65
2022/12/25 11:03:26;;;;;;;3.42;3.20;;;;;;;21.47;56.50;151434.25;5071864;28;20181;-64
2022/12/25 11:05:54;;;;;;;3.30;3.20;;;;;;;20.86;61.93;151281.28;5072939;28;20189;-65
2022/12/25 11:08:24;;;;;;;3.50;3.20;;;;;;;22.28;55.22;151640.75;5072337;28;20177;-64
2022/12/25 11:10:56;;;;;;;3.30;3.20;;;;;;;22.54;52.71;151704.53;5072403;28;20185;-65
2022/12/25 11:13:26;;;;;;;3.33;3.03;;;;;;;22.72;53.12;151750.50;5072478;28;20621;-64
2022/12/25 11:16:04;;;;;;;3.70;3.60;;;;;;;23.16;50.72;151861.50;5072179;28;20185;-64
2022/12/25 11:18:34;;;;;;;3.47;3.38;;;;;;;23.55;49.50;151959.81;5072041;28;20208;-64
2022/12/25 11:21:14;;;;;;;3.42;3.33;;;;;;;23.73;48.31;152004.44;5072022;28;20185;-64
2022/12/25 11:23:46;;;;;;;3.70;3.60;;;;;;;23.64;49.10;151982.75;5071958;28;20185;-64
2022/12/25 11:26:13;;;;;;;3.08;2.97;;;;;;;23.54;47.46;151958.53;5071969;28;20189;-64
2022/12/25 11:28:42;;;;;;;3.30;3.20;;;;;;;23.58;47.93;151967.47;5072371;28;20224;-64
2022/12/25 11:31:13;;;;;;;3.45;3.28;;;;;;;23.31;48.14;151898.47;5071901;28;20246;-64
2022/12/25 11:33:45;;;;;;;2.92;2.83;;;;;;;23.16;48.52;151862.78;5072096;28;20702;-64
2022/12/25 11:36:20;;;;;;;3.00;2.90;;;;;;;22.54;50.10;151705.81;5072104;28;20196;-64
2022/12/25 11:38:47;;;;;;;3.40;3.30;;;;;;;21.19;53.84;151365.41;5072022;28;20249;-64
2022/12/25 11:41:19;;;;;;;3.35;3.20;;;;;;;20.01;60.66;151067.28;5071531;28;20191;-64
2022/12/25 11:43:52;;;;;;;3.67;3.47;;;;;;;18.35;68.41;150649.88;5071997;28;20619;-65
2022/12/25 11:46:25;;;;;;;3.43;3.33;;;;;;;18.02;75.57;150565.97;5071813;28;20181;-64
2022/12/25 11:48:56;;;;;;;3.83;3.63;;;;;;;17.46;83.36;150426.09;5071810;28;20184;-64
2022/12/25 11:51:28;;;;;;;3.93;3.83;;;;;;;16.86;88.88;150274.91;5071504;28;20185;-64
2022/12/25 11:53:58;;;;;;;3.73;3.53;;;;;;;16.52;92.79;150188.47;5071426;28;20185;-64
2022/12/25 11:56:28;;;;;;;4.10;3.90;;;;;;;16.34;94.34;150145.31;5071560;28;20189;-64
2022/12/25 11:59:00;;;;;;;4.03;3.73;;;;;;;16.23;96.97;150116.13;5071328;28;20357;-65
2022/12/25 12:01:33;;;;;;;4.10;3.90;;;;;;;16.18;96.75;150103.41;5071868;28;20551;-64
2022/12/25 12:04:02;;;;;;;4.60;4.20;;;;;;;16.20;98.59;150108.50;5070227;28;20271;-64
2022/12/25 12:06:40;;;;;;;3.60;3.50;;;;;;;16.18;96.57;150103.41;5071222;28;20643;-64
2022/12/25 12:09:24;;;;;;;3.60;3.50;;;;;;;15.99;100.00;150057.75;5071569;28;20250;-64
2022/12/25 12:11:59;;;;;;;3.63;3.43;;;;;;;15.84;100.00;150019.63;5071555;28;20207;-64
2022/12/25 12:14:38;;;;;;;3.70;3.60;;;;;;;15.56;100.00;149948.59;5069983;28;20224;-65
2022/12/25 12:17:08;;;;;;;4.30;4.10;;;;;;;15.49;100.00;149932.00;5071055;28;20188;-64
2022/12/25 12:19:35;;;;;;;3.93;3.73;;;;;;;15.41;100.00;149910.44;5071085;28;20192;-64
2022/12/25 12:22:04;;;;;;;4.30;4.00;;;;;;;15.40;100.00;149907.94;5071367;28;20181;-64
2022/12/25 12:24:38;;;;;;;3.90;3.60;;;;;;;15.34;100.00;149892.69;5071399;28;20188;-64
2022/12/25 12:27:13;;;;;;;4.33;4.13;;;;;;;15.17;100.00;149849.56;5071058;28;20240;-64
2022/12/25 12:29:43;;;;;;;4.40;4.00;;;;;;;15.13;100.00;149840.69;5071468;28;20184;-64
2022/12/25 12:32:37;;;;;;;4.07;3.87;;;;;;;15.21;100.00;149859.72;5071210;28;20193;-64
2022/12/25 12:35:16;;;;;;;3.73;3.40;;;;;;;15.20;100.00;149857.16;5071359;28;20191;-64
2022/12/25 12:37:47;;;;;;;4.03;3.83;;;;;;;15.31;100.00;149885.09;5070849;28;20322;-65
2022/12/25 12:40:33;;;;;;;3.60;3.40;;;;;;;15.34;100.00;149892.69;5071276;28;20193;-64
2022/12/25 12:43:00;;;;;;;4.13;3.93;;;;;;;15.26;100.00;149873.69;5071339;28;20184;-64
2022/12/25 12:45:31;;;;;;;3.93;3.73;;;;;;;15.30;100.00;149882.56;5070929;28;20188;-64
2022/12/25 12:47:58;;;;;;;3.93;3.73;;;;;;;15.37;100.00;149901.56;5071225;28;20249;-64
2022/12/25 12:50:34;;;;;;;3.90;3.70;;;;;;;15.39;100.00;149906.66;5071370;28;20234;-64
2022/12/25 12:53:26;;;;;;;3.50;3.37;;;;;;;15.37;100.00;149900.28;5071021;28;20192;-64
2022/12/25 12:55:54;;;;;;;2.80;2.70;;;;;;;15.07;100.00;149826.72;5071228;28;20578;-65
2022/12/25 12:58:32;;;;;;;3.40;3.30;;;;;;;15.06;100.00;149824.19;5070951;28;20575;-65
2022/12/25 13:01:17;;;;;;;3.60;3.40;;;;;;;15.01;100.00;149810.25;5069530;28;20325;-64
2022/12/25 13:04:15;;;;;;;3.70;3.40;;;;;;;14.96;100.00;149798.84;5070843;28;20185;-63
2022/12/25 13:06:47;;;;;;;3.73;3.53;;;;;;;14.94;100.00;149793.75;5070706;28;20197;-64
2022/12/25 13:09:29;;;;;;;3.20;3.10;;;;;;;14.98;100.00;149803.88;5070838;28;20181;-64
2022/12/25 13:11:56;;;;;;;3.27;3.17;;;;;;;14.93;100.00;149789.97;5070937;28;20193;-64
2022/12/25 13:14:25;;;;;;;3.97;3.77;;;;;;;14.85;100.00;149770.91;5070988;28;20195;-64
2022/12/25 13:16:53;;;;;;;4.00;3.20;;;;;;;14.77;100.00;149750.63;5070574;28;20250;-64